Time;durP1;ratioP1;P1;durP2;ratioP2;P2;SDS_P1;SDS_P2;PMS_P1;PMS_P2;Temp;Humidity;BMP_temperature;BMP_pressure;BME280_temperature;BME280_humidity;BME280_pressure;Samples;Min_cycle;Max_cycle;Signal;HPM_P1;HPM_P2
2022/03/17 00:01:28;;;;;;;;;;;;;;;18.50;58.31;102029.88;5076041;28;2000;-36
2022/03/17 00:03:54;;;;;;;;;;;;;;;18.50;58.49;102024.53;5094051;28;1836;-36
2022/03/17 00:06:23;;;;;;;;;;;;;;;18.51;58.10;102020.91;5093469;28;1980;-36
2022/03/17 00:08:49;;;;;;;;;;;;;;;18.47;58.73;102035.47;5090651;28;1662;-36
2022/03/17 00:11:20;;;;;;;;;;;;;;;18.43;58.93;102040.16;5082161;28;1000;-35
2022/03/17 00:13:47;;;;;;;;;;;;;;;18.41;58.88;102031.34;5089391;28;1957;-36
2022/03/17 00:16:15;;;;;;;;;;;;;;;18.40;58.71;102044.84;5094133;28;1903;-36
2022/03/17 00:18:44;;;;;;;;;;;;;;;18.39;58.72;102048.50;5087178;28;1672;-36
2022/03/17 00:21:11;;;;;;;;;;;;;;;18.33;59.18;102047.06;5089142;28;1655;-38
2022/03/17 00:23:41;;;;;;;;;;;;;;;18.27;59.18;102056.34;5078121;28;1055;-36
2022/03/17 00:26:07;;;;;;;;;;;;;;;18.22;59.09;102055.81;5093062;28;1902;-36
2022/03/17 00:28:34;;;;;;;;;;;;;;;18.17;59.47;102052.56;5084745;28;1772;-36
2022/03/17 00:31:03;;;;;;;;;;;;;;;18.11;59.38;102061.00;5092907;28;1936;-36
2022/03/17 00:36:19;;;;;;;;;;;;;;;18.11;59.57;102066.34;5085771;28;1822;-37
2022/03/17 00:38:48;;;;;;;;;;;;;;;18.03;59.65;102052.59;5081633;28;1727;-36
2022/03/17 00:41:14;;;;;;;;;;;;;;;18.04;59.28;102060.50;5091057;28;1657;-36
2022/03/17 00:43:44;;;;;;;;;;;;;;;17.96;59.40;102046.75;5092873;28;1815;-36
2022/03/17 00:46:12;;;;;;;;;;;;;;;17.98;59.39;102058.22;5085382;28;1919;-36
2022/03/17 00:48:44;;;;;;;;;;;;;;;17.96;59.45;102061.94;5093394;28;1962;-36
2022/03/17 00:53:52;;;;;;;;;;;;;;;17.95;59.28;102065.59;5089563;28;2254;-36
2022/03/17 00:56:21;;;;;;;;;;;;;;;17.94;59.36;102069.22;5087718;28;1101;-36
2022/03/17 00:58:48;;;;;;;;;;;;;;;17.91;59.31;102078.31;5091936;28;1813;-36
2022/03/17 01:01:16;;;;;;;;;;;;;;;17.91;59.59;102069.44;5081484;28;1924;-36
2022/03/17 01:03:59;;;;;;;;;;;;;;;17.98;59.29;102079.63;5088695;28;1468;-36
2022/03/17 01:06:28;;;;;;;;;;;;;;;18.27;58.22;102075.09;5090170;28;1901;-36
2022/03/17 01:08:55;;;;;;;;;;;;;;;18.49;57.32;102071.03;5080494;28;1630;-36
2022/03/17 01:11:25;;;;;;;;;;;;;;;18.67;57.66;102075.16;5075390;28;1630;-36
2022/03/17 01:16:32;;;;;;;;;;;;;;;18.96;56.26;102084.94;5086360;28;1938;-36
2022/03/17 01:19:00;;;;;;;;;;;;;;;19.00;56.34;102076.59;5075126;28;1091;-36
2022/03/17 01:21:29;;;;;;;;;;;;;;;18.97;56.54;102084.84;5091334;28;1604;-36
2022/03/17 01:23:56;;;;;;;;;;;;;;;18.92;56.62;102078.94;5091589;28;2000;-36
2022/03/17 01:26:22;;;;;;;;;;;;;;;18.88;56.58;102072.06;5088202;28;1914;-36
2022/03/17 01:28:52;;;;;;;;;;;;;;;18.82;56.78;102093.91;5089164;28;1724;-36
2022/03/17 01:31:19;;;;;;;;;;;;;;;18.77;57.05;102093.34;5089894;28;1747;-36
2022/03/17 01:33:48;;;;;;;;;;;;;;;18.69;57.22;102091.16;5082815;28;1614;-36
2022/03/17 01:39:11;;;;;;;;;;;;;;;18.60;56.99;102092.63;5080276;28;2469;-36
2022/03/17 01:41:44;;;;;;;;;;;;;;;18.60;57.02;102078.34;5091286;28;1888;-36
2022/03/17 01:44:13;;;;;;;;;;;;;;;18.54;57.63;102082.28;5086864;28;1663;-35
2022/03/17 01:49:23;;;;;;;;;;;;;;;18.55;57.52;102091.22;5091091;28;1904;-36
2022/03/17 01:51:50;;;;;;;;;;;;;;;18.55;57.60;102093.88;5090216;28;1902;-36
2022/03/17 01:54:20;;;;;;;;;;;;;;;18.55;57.92;102108.13;5092197;28;2044;-36
2022/03/17 01:56:52;;;;;;;;;;;;;;;18.51;57.83;102101.25;5087142;28;1575;-36
2022/03/17 01:59:22;;;;;;;;;;;;;;;18.47;57.64;102115.81;5092622;28;1006;-35
2022/03/17 02:01:52;;;;;;;;;;;;;;;18.49;57.45;102116.56;5090194;28;1980;-36
2022/03/17 02:04:22;;;;;;;;;;;;;;;18.40;57.54;102109.13;5088092;28;1662;-36
2022/03/17 02:06:49;;;;;;;;;;;;;;;18.40;58.07;102130.53;5090628;28;1901;-36
2022/03/17 02:09:18;;;;;;;;;;;;;;;18.34;57.73;102126.44;5088996;28;1728;-36
2022/03/17 02:14:34;;;;;;;;;;;;;;;18.31;57.90;102125.78;5082038;28;1688;-36
2022/03/17 02:17:01;;;;;;;;;;;;;;;18.26;57.96;102123.38;5090608;28;1693;-36
2022/03/17 02:19:30;;;;;;;;;;;;;;;18.21;58.00;102120.16;5086208;28;1869;-36
2022/03/17 02:21:57;;;;;;;;;;;;;;;18.16;58.24;102125.78;5081834;28;1538;-36
2022/03/17 02:27:13;;;;;;;;;;;;;;;18.10;58.29;102144.91;5075696;28;1905;-36
2022/03/17 02:29:41;;;;;;;;;;;;;;;18.04;57.99;102145.31;5090770;28;1042;-36
2022/03/17 02:32:09;;;;;;;;;;;;;;;18.02;58.21;102132.00;5087033;28;1817;-36
2022/03/17 02:34:40;;;;;;;;;;;;;;;17.98;58.21;102141.19;5080198;28;1956;-36
2022/03/17 02:39:54;;;;;;;;;;;;;;;18.02;57.84;102155.25;5082861;28;1578;-36
2022/03/17 02:42:23;;;;;;;;;;;;;;;17.97;58.06;102160.91;5094004;28;2221;-36
2022/03/17 02:44:49;;;;;;;;;;;;;;;18.00;58.74;102154.47;5095785;28;1936;-36
2022/03/17 02:47:16;;;;;;;;;;;;;;;17.88;57.97;102162.31;5094626;28;1993;-36
2022/03/17 02:49:47;;;;;;;;;;;;;;;17.93;58.01;102171.88;5093222;28;1937;-36
2022/03/17 02:52:18;;;;;;;;;;;;;;;17.85;58.04;102180.38;5079783;28;2027;-36
2022/03/17 02:54:48;;;;;;;;;;;;;;;17.88;58.19;102182.84;5086998;28;1818;-36
2022/03/17 02:57:17;;;;;;;;;;;;;;;17.84;58.50;102182.19;5087689;28;1154;-36
2022/03/17 02:59:48;;;;;;;;;;;;;;;17.89;58.15;102189.94;5089584;28;1752;-36
2022/03/17 03:02:21;;;;;;;;;;;;;;;18.02;58.14;102200.75;5137564;23;3814;-31
2022/03/17 03:04:52;;;;;;;;;;;;;;;18.07;57.61;102188.81;5030987;28;2165;-33
2022/03/17 03:07:22;;;;;;;;;;;;;;;18.26;57.44;102195.69;5029663;28;1989;-33
2022/03/17 03:09:51;;;;;;;;;;;;;;;18.38;57.26;102202.09;5024771;28;1732;-33
2022/03/17 03:12:23;;;;;;;;;;;;;;;18.48;56.95;102197.88;5025841;28;1532;-33
2022/03/17 03:14:53;;;;;;;;;;;;;;;18.57;56.53;102202.66;5027477;28;1592;-33
2022/03/17 03:17:22;;;;;;;;;;;;;;;18.63;56.49;102202.25;5032506;28;1731;-33
2022/03/17 03:19:48;;;;;;;;;;;;;;;18.62;56.67;102189.84;5035741;28;1848;-33
2022/03/17 03:22:29;;;;;;;;;;;;;;;18.67;56.70;102208.28;5033732;28;2032;-33
2022/03/17 03:24:59;;;;;;;;;;;;;;;18.70;56.92;102202.72;5030186;28;1795;-33
2022/03/17 03:27:29;;;;;;;;;;;;;;;18.63;56.63;102196.91;5030424;28;1914;-33
2022/03/17 03:29:55;;;;;;;;;;;;;;;18.64;56.90;102222.75;5031936;28;1548;-33
2022/03/17 03:32:31;;;;;;;;;;;;;;;18.59;56.60;102222.19;5027943;28;1510;-33
2022/03/17 03:34:57;;;;;;;;;;;;;;;18.55;57.16;102223.31;5021651;28;1764;-33
2022/03/17 03:37:24;;;;;;;;;;;;;;;18.54;56.85;102239.50;5030762;28;1898;-33
2022/03/17 03:39:54;;;;;;;;;;;;;;;18.49;56.83;102237.13;5031824;28;1895;-33
2022/03/17 03:42:30;;;;;;;;;;;;;;;18.46;56.69;102238.19;5032221;28;1740;-33
2022/03/17 03:45:03;;;;;;;;;;;;;;;18.43;57.27;102253.56;5031117;28;1888;-33
2022/03/17 03:47:33;;;;;;;;;;;;;;;18.42;57.02;102257.19;5031299;28;1969;-33
2022/03/17 03:50:02;;;;;;;;;;;;;;;18.36;57.40;102255.75;5025894;28;1609;-33
2022/03/17 03:52:31;;;;;;;;;;;;;;;18.34;57.07;102270.19;5022990;28;1755;-33
2022/03/17 03:54:58;;;;;;;;;;;;;;;18.27;57.26;102265.22;5033198;28;1997;-33
2022/03/17 03:57:34;;;;;;;;;;;;;;;18.29;56.99;102268.66;5030555;28;2214;-33
2022/03/17 04:00:18;;;;;;;;;;;;;;;18.28;57.21;102290.19;5024442;28;2042;-33
2022/03/17 04:02:48;;;;;;;;;;;;;;;18.24;57.13;102276.13;5026728;28;2297;-33
2022/03/17 04:05:18;;;;;;;;;;;;;;;18.14;57.37;102282.97;5034483;28;1630;-33
2022/03/17 04:07:49;;;;;;;;;;;;;;;18.11;58.00;102285.88;5029682;28;1991;-33
2022/03/17 04:10:15;;;;;;;;;;;;;;;18.08;57.42;102302.09;5025308;28;1951;-33
2022/03/17 04:12:42;;;;;;;;;;;;;;;18.04;57.53;102306.75;5032672;28;1399;-33
2022/03/17 04:15:13;;;;;;;;;;;;;;;18.04;57.53;102312.13;5035171;28;1054;-33
2022/03/17 04:17:43;;;;;;;;;;;;;;;17.98;57.80;102307.13;5027656;28;1782;-33
2022/03/17 04:20:10;;;;;;;;;;;;;;;17.96;57.53;102313.53;5028229;28;1921;-33
2022/03/17 04:22:37;;;;;;;;;;;;;;;17.91;57.89;102315.66;5032012;28;1747;-33
2022/03/17 04:25:03;;;;;;;;;;;;;;;17.89;58.05;102310.38;5031957;28;1967;-35
2022/03/17 04:30:16;;;;;;;;;;;;;;;17.86;58.03;102324.78;5030596;28;2718;-33
2022/03/17 04:32:42;;;;;;;;;;;;;;;17.88;57.95;102327.38;5028504;28;1539;-33
2022/03/17 04:35:10;;;;;;;;;;;;;;;17.84;58.16;102337.38;5030145;28;1337;-34
2022/03/17 04:37:44;;;;;;;;;;;;;;;17.84;58.08;102342.75;5029633;28;1616;-33
2022/03/17 04:40:13;;;;;;;;;;;;;;;17.78;58.03;102343.06;5028650;28;1462;-33
2022/03/17 04:42:42;;;;;;;;;;;;;;;17.76;57.82;102328.91;5028696;28;1510;-33
2022/03/17 04:45:10;;;;;;;;;;;;;;;17.80;57.95;102335.81;5030088;28;1576;-34
2022/03/17 04:47:38;;;;;;;;;;;;;;;17.87;57.94;102349.75;5032277;28;1967;-33
2022/03/17 04:50:07;;;;;;;;;;;;;;;17.92;57.73;102360.16;5032074;28;1723;-33
2022/03/17 04:55:22;;;;;;;;;;;;;;;17.96;57.76;102351.00;5029098;28;1544;-34
2022/03/17 04:57:52;;;;;;;;;;;;;;;17.93;57.58;102357.41;5031174;28;1659;-33
2022/03/17 05:00:26;;;;;;;;;;;;;;;17.91;57.67;102353.13;5031910;28;1328;-33
2022/03/17 05:02:58;;;;;;;;;;;;;;;17.93;58.13;102365.44;5028209;28;1441;-33
2022/03/17 05:05:33;;;;;;;;;;;;;;;17.88;57.96;102365.69;5027957;28;1379;-33
2022/03/17 05:08:03;;;;;;;;;;;;;;;17.91;57.94;102369.16;5029254;28;1906;-34
2022/03/17 05:10:29;;;;;;;;;;;;;;;17.86;57.91;102356.88;5031686;28;1866;-34
2022/03/17 05:12:58;;;;;;;;;;;;;;;17.91;57.86;102358.47;5030329;28;1547;-33
2022/03/17 05:18:12;;;;;;;;;;;;;;;17.86;57.92;102383.66;5032122;28;2427;-33
2022/03/17 05:20:43;;;;;;;;;;;;;;;17.83;58.08;102367.78;5015537;28;1616;-33
2022/03/17 05:23:14;;;;;;;;;;;;;;;17.81;58.24;102374.16;5028102;28;1576;-33
2022/03/17 05:25:41;;;;;;;;;;;;;;;17.76;58.51;102382.44;5032698;28;1989;-33
2022/03/17 05:28:12;;;;;;;;;;;;;;;17.76;58.33;102385.09;5031089;28;1983;-33
2022/03/17 05:30:41;;;;;;;;;;;;;;;17.75;58.28;102398.59;5028855;28;1414;-33
2022/03/17 05:33:15;;;;;;;;;;;;;;;17.72;58.53;102380.88;5026487;28;1716;-33
2022/03/17 05:35:49;;;;;;;;;;;;;;;17.72;58.16;102390.72;5031840;28;1728;-30
2022/03/17 05:38:17;;;;;;;;;;;;;;;17.76;58.10;102401.16;5031067;28;1983;-30
2022/03/17 05:40:46;;;;;;;;;;;;;;;17.85;58.07;102400.69;5033302;28;1853;-33
2022/03/17 05:43:15;;;;;;;;;;;;;;;18.17;57.07;102389.06;5027668;28;1716;-33
2022/03/17 05:45:43;;;;;;;;;;;;;;;18.47;56.12;102397.94;5029370;28;1864;-33
2022/03/17 05:48:16;;;;;;;;;;;;;;;18.71;55.67;102397.41;5022076;28;1906;-33
2022/03/17 05:50:56;;;;;;;;;;;;;;;18.91;55.05;102406.91;5023119;28;1801;-33
2022/03/17 05:53:23;;;;;;;;;;;;;;;19.08;55.30;102413.94;5027874;28;1779;-33
2022/03/17 05:55:52;;;;;;;;;;;;;;;19.17;55.16;102415.16;5022600;28;1823;-33
2022/03/17 05:58:28;;;;;;;;;;;;;;;19.20;54.19;102425.69;5022857;28;1795;-33
2022/03/17 06:01:11;;;;;;;;;;;;;;;19.17;54.22;102416.00;5033101;28;1630;-34
2022/03/17 06:03:59;;;;;;;;;;;;;;;19.14;55.06;102399.25;5021390;28;1596;-33
2022/03/17 06:06:41;;;;;;;;;;;;;;;19.03;54.57;102424.06;5014811;28;1330;-33
2022/03/17 06:09:10;;;;;;;;;;;;;;;18.97;55.08;102414.59;5029908;28;1906;-33
2022/03/17 06:11:46;;;;;;;;;;;;;;;18.94;55.35;102428.19;5028085;28;1813;-34
2022/03/17 06:14:17;;;;;;;;;;;;;;;18.91;55.58;102416.78;5032839;28;961;-33
2022/03/17 06:16:45;;;;;;;;;;;;;;;18.89;55.58;102430.28;5032394;28;1900;-33
2022/03/17 06:19:14;;;;;;;;;;;;;;;18.85;54.94;102437.63;5034582;28;1846;-33
2022/03/17 06:21:50;;;;;;;;;;;;;;;18.85;55.78;102447.50;5036528;28;1755;-33
2022/03/17 06:24:38;;;;;;;;;;;;;;;18.84;55.40;102457.38;5019762;28;1794;-33
2022/03/17 06:27:08;;;;;;;;;;;;;;;19.02;55.70;102465.22;5035052;28;1997;-33
2022/03/17 06:29:37;;;;;;;;;;;;;;;18.90;55.45;102466.88;5034088;28;1938;-33
2022/03/17 06:32:10;;;;;;;;;;;;;;;19.24;55.13;102462.97;5027695;28;1770;-33
2022/03/17 06:34:37;;;;;;;;;;;;;;;19.55;53.75;102484.31;5030578;28;1899;-33
2022/03/17 06:37:08;;;;;;;;;;;;;;;19.79;56.26;102485.44;5036040;28;1514;-33
2022/03/17 06:39:39;;;;;;;;;;;;;;;19.99;54.84;102511.00;5032960;28;1649;-33
2022/03/17 06:42:11;;;;;;;;;;;;;;;20.01;55.32;102514.44;5034694;28;1641;-34
2022/03/17 06:44:39;;;;;;;;;;;;;;;19.67;54.64;102500.47;5032094;28;1684;-32
2022/03/17 06:47:12;;;;;;;;;;;;;;;19.74;55.53;102502.84;5035035;28;1595;-33
2022/03/17 06:49:41;;;;;;;;;;;;;;;19.81;55.08;102507.69;5030390;28;2047;-33
2022/03/17 06:52:11;;;;;;;;;;;;;;;19.78;54.15;102507.03;5031211;28;1763;-33
2022/03/17 06:54:38;;;;;;;;;;;;;;;19.60;54.32;102519.78;5028796;28;1755;-33
2022/03/17 06:57:05;;;;;;;;;;;;;;;19.45;54.16;102511.72;5033627;28;1905;-33
2022/03/17 06:59:31;;;;;;;;;;;;;;;19.38;54.02;102514.91;5029463;28;994;-32
2022/03/17 07:01:58;;;;;;;;;;;;;;;19.58;55.22;102513.66;5028014;28;1961;-33
2022/03/17 07:04:27;;;;;;;;;;;;;;;19.65;54.16;102513.13;5033803;28;1607;-34
2022/03/17 07:06:53;;;;;;;;;;;;;;;19.52;54.69;102519.38;5032131;28;1640;-33
2022/03/17 07:09:26;;;;;;;;;;;;;;;19.28;56.11;102512.78;5034604;28;1906;-34
2022/03/17 07:11:53;;;;;;;;;;;;;;;19.24;56.10;102519.28;5027095;28;1589;-33
2022/03/17 07:14:23;;;;;;;;;;;;;;;19.12;56.19;102529.88;5032213;28;1731;-34
2022/03/17 07:16:50;;;;;;;;;;;;;;;18.95;56.49;102517.50;5029944;28;1389;-34
2022/03/17 07:19:16;;;;;;;;;;;;;;;18.93;56.20;102517.59;5021009;28;1429;-34
2022/03/17 07:21:43;;;;;;;;;;;;;;;18.91;56.58;102511.47;5031749;28;1824;-34
2022/03/17 07:24:10;;;;;;;;;;;;;;;18.96;56.67;102520.09;5023648;28;1899;-33
2022/03/17 07:26:44;;;;;;;;;;;;;;;18.88;56.71;102506.31;5031440;28;1713;-34
2022/03/17 07:29:11;;;;;;;;;;;;;;;18.97;57.26;102518.28;5024978;28;1963;-34
2022/03/17 07:31:37;;;;;;;;;;;;;;;18.85;56.94;102517.19;5025977;28;1777;-34
2022/03/17 07:34:04;;;;;;;;;;;;;;;18.84;57.04;102515.47;5024602;28;1150;-34
2022/03/17 07:36:30;;;;;;;;;;;;;;;18.87;57.12;102536.72;5030474;28;1918;-33
2022/03/17 07:38:57;;;;;;;;;;;;;;;18.77;57.09;102533.69;5021886;28;1594;-34
2022/03/17 07:41:24;;;;;;;;;;;;;;;18.75;57.82;102526.72;5025520;28;1480;-33
2022/03/17 07:43:52;;;;;;;;;;;;;;;18.73;57.29;102513.41;5025397;28;1632;-33
2022/03/17 07:46:19;;;;;;;;;;;;;;;18.77;57.45;102527.50;5032712;28;1798;-33
2022/03/17 07:48:45;;;;;;;;;;;;;;;18.74;57.00;102520.50;5028761;28;1906;-33
2022/03/17 07:51:12;;;;;;;;;;;;;;;18.77;57.19;102536.38;5025159;28;1526;-36
2022/03/17 07:53:39;;;;;;;;;;;;;;;18.76;57.84;102526.63;5015615;28;1089;-34
2022/03/17 07:56:06;;;;;;;;;;;;;;;18.74;57.92;102531.22;5029559;28;1652;-34
2022/03/17 07:58:33;;;;;;;;;;;;;;;18.79;57.28;102537.19;5028993;28;1982;-33
2022/03/17 08:01:02;;;;;;;;;;;;;;;18.79;57.51;102541.66;5034422;28;1795;-34
2022/03/17 08:03:28;;;;;;;;;;;;;;;18.78;57.95;102548.84;5028320;28;1854;-33
2022/03/17 08:05:56;;;;;;;;;;;;;;;18.81;58.12;102545.16;5028542;28;1763;-33
2022/03/17 08:08:22;;;;;;;;;;;;;;;18.82;57.97;102544.19;5028273;28;1906;-34
2022/03/17 08:10:48;;;;;;;;;;;;;;;19.02;57.64;102551.91;5025190;28;1965;-33
2022/03/17 08:13:15;;;;;;;;;;;;;;;18.93;58.11;102549.78;5024858;28;1603;-33
2022/03/17 08:15:42;;;;;;;;;;;;;;;18.91;57.61;102549.00;5018309;28;1111;-33
2022/03/17 08:18:10;;;;;;;;;;;;;;;18.86;57.58;102567.16;5028456;28;1906;-34
2022/03/17 08:20:37;;;;;;;;;;;;;;;18.90;57.56;102560.69;5028894;28;1992;-33
2022/03/17 08:23:04;;;;;;;;;;;;;;;18.86;57.54;102567.16;5023845;28;1680;-33
2022/03/17 08:25:30;;;;;;;;;;;;;;;18.92;57.65;102561.47;5030426;28;1754;-33
2022/03/17 08:27:57;;;;;;;;;;;;;;;19.06;57.44;102569.53;5029409;28;1902;-33
2022/03/17 08:30:24;;;;;;;;;;;;;;;19.16;57.51;102571.66;5025887;28;1665;-34
2022/03/17 08:32:50;;;;;;;;;;;;;;;19.16;57.28;102574.31;5033128;28;1753;-33
2022/03/17 08:35:20;;;;;;;;;;;;;;;19.13;57.54;102569.16;5030755;28;1715;-33
2022/03/17 08:37:47;;;;;;;;;;;;;;;19.18;57.90;102584.03;5028365;28;1814;-34
2022/03/17 08:40:14;;;;;;;;;;;;;;;19.11;57.66;102579.97;5025066;28;1928;-34
2022/03/17 08:42:41;;;;;;;;;;;;;;;19.11;57.28;102579.13;5014642;28;995;-34
2022/03/17 08:50:35;;;;;;;;;;;;;;;19.13;57.51;102580.75;5019870;28;1657;-34
2022/03/17 08:53:01;;;;;;;;;;;;;;;19.10;56.76;102578.28;5024328;28;1454;-34
2022/03/17 08:55:28;;;;;;;;;;;;;;;19.12;57.15;102573.69;5027934;28;1659;-34
2022/03/17 08:57:56;;;;;;;;;;;;;;;19.18;56.52;102569.72;5024055;28;1695;-34
2022/03/17 09:00:22;;;;;;;;;;;;;;;19.22;56.85;102574.00;5028401;28;1075;-34
2022/03/17 09:02:49;;;;;;;;;;;;;;;19.29;56.35;102586.06;5026418;28;1995;-33
2022/03/17 09:05:15;;;;;;;;;;;;;;;19.28;56.28;102581.66;5027494;28;1799;-34
2022/03/17 09:07:43;;;;;;;;;;;;;;;19.27;56.52;102587.97;5023222;28;1628;-34
2022/03/17 09:10:10;;;;;;;;;;;;;;;19.28;56.86;102590.56;5023637;28;1973;-33
2022/03/17 09:12:38;;;;;;;;;;;;;;;19.30;56.10;102581.53;5026033;28;1370;-34
2022/03/17 09:15:06;;;;;;;;;;;;;;;19.30;56.95;102597.63;5025790;28;1173;-33
2022/03/17 09:17:32;;;;;;;;;;;;;;;19.33;55.97;102590.28;5027575;28;1972;-33
2022/03/17 09:19:58;;;;;;;;;;;;;;;19.36;56.04;102590.09;5023006;28;1672;-34
2022/03/17 09:22:25;;;;;;;;;;;;;;;19.38;56.07;102581.97;5023083;28;1605;-34
2022/03/17 09:24:53;;;;;;;;;;;;;;;19.39;56.05;102592.56;5025001;28;1959;-31
2022/03/17 09:27:22;;;;;;;;;;;;;;;19.39;56.74;102576.47;5029673;28;1440;-31
2022/03/17 09:29:49;;;;;;;;;;;;;;;19.38;55.94;102574.78;5022448;28;1898;-31
2022/03/17 09:32:20;;;;;;;;;;;;;;;19.35;56.11;102584.81;5019007;28;1688;-31
2022/03/17 09:34:46;;;;;;;;;;;;;;;19.33;57.01;102592.09;5026921;28;1633;-32
2022/03/17 09:37:13;;;;;;;;;;;;;;;19.36;56.89;102590.09;5024347;28;1601;-31
2022/03/17 09:39:46;;;;;;;;;;;;;;;19.31;56.72;102600.22;5016639;28;1778;-31
2022/03/17 09:42:15;;;;;;;;;;;;;;;19.28;56.11;102595.06;5028103;28;1807;-33
2022/03/17 09:44:42;;;;;;;;;;;;;;;19.28;56.54;102592.38;5025091;28;1806;-34
2022/03/17 09:47:09;;;;;;;;;;;;;;;19.22;57.26;102579.34;5018290;28;1748;-33
2022/03/17 09:49:37;;;;;;;;;;;;;;;19.17;56.36;102586.78;5025329;28;1910;-34
2022/03/17 09:52:11;;;;;;;;;;;;;;;19.08;56.46;102594.44;5024467;28;1399;-33
2022/03/17 09:54:41;;;;;;;;;;;;;;;19.17;55.31;102581.44;5031037;28;1468;-34
2022/03/17 09:57:07;;;;;;;;;;;;;;;19.17;56.38;102602.88;5032860;28;1970;-34
2022/03/17 09:59:39;;;;;;;;;;;;;;;19.22;55.75;102600.81;5033293;28;1175;-33
2022/03/17 10:02:06;;;;;;;;;;;;;;;19.20;55.97;102606.25;5023590;28;1739;-34
2022/03/17 10:04:35;;;;;;;;;;;;;;;19.20;56.60;102608.06;5020051;28;1786;-34
2022/03/17 10:07:06;;;;;;;;;;;;;;;19.03;56.96;102606.38;5016215;28;1812;-33
2022/03/17 10:09:35;;;;;;;;;;;;;;;19.02;56.77;102605.53;5028266;28;1983;-33
2022/03/17 10:15:17;;;;;;;;;;;;;;;19.17;56.84;102613.63;5024347;28;1577;-33
2022/03/17 10:17:45;;;;;;;;;;;;;;;19.31;56.68;102615.47;5024813;28;1980;-34
2022/03/17 10:20:13;;;;;;;;;;;;;;;19.21;57.10;102610.66;5023721;28;2003;-34
2022/03/17 10:22:41;;;;;;;;;;;;;;;19.17;57.37;102618.97;5029778;28;1967;-33
2022/03/17 10:25:12;;;;;;;;;;;;;;;19.32;57.68;102626.13;5030476;28;1699;-34
2022/03/17 10:27:40;;;;;;;;;;;;;;;19.28;57.43;102611.16;5029383;28;1519;-34
2022/03/17 10:30:13;;;;;;;;;;;;;;;19.34;57.71;102618.84;5032689;28;1980;-33
2022/03/17 10:32:44;;;;;;;;;;;;;;;19.39;57.23;102622.09;5032405;28;1774;-34
2022/03/17 10:35:11;;;;;;;;;;;;;;;19.35;58.08;102633.09;5030859;28;1852;-34
2022/03/17 10:37:39;;;;;;;;;;;;;;;19.40;57.66;102626.50;5026642;28;1576;-34
2022/03/17 10:40:10;;;;;;;;;;;;;;;19.52;57.51;102624.00;5031143;28;1509;-34
2022/03/17 10:42:41;;;;;;;;;;;;;;;19.63;56.97;102626.91;5030028;28;1517;-34
2022/03/17 10:45:12;;;;;;;;;;;;;;;19.75;57.42;102618.13;5030981;28;1558;-33
2022/03/17 10:47:40;;;;;;;;;;;;;;;20.01;57.40;102608.44;5030596;28;1838;-33
2022/03/17 10:50:16;;;;;;;;;;;;;;;19.94;56.56;102623.22;5027388;28;1906;-33
2022/03/17 10:52:50;;;;;;;;;;;;;;;19.86;56.83;102615.66;5016578;28;1756;-33
2022/03/17 10:55:19;;;;;;;;;;;;;;;20.07;57.14;102620.63;5025440;28;1805;-34
2022/03/17 10:57:47;;;;;;;;;;;;;;;19.85;57.34;102627.34;5033506;28;2071;-34
2022/03/17 11:00:26;;;;;;;;;;;;;;;19.59;57.51;102617.34;5016822;28;997;-34
2022/03/17 11:02:56;;;;;;;;;;;;;;;19.54;56.73;102614.94;5025393;28;1791;-34
2022/03/17 11:05:23;;;;;;;;;;;;;;;19.40;57.50;102615.78;5025607;28;1853;-34
2022/03/17 11:07:54;;;;;;;;;;;;;;;19.25;56.46;102616.69;5032977;28;1711;-33
2022/03/17 11:10:22;;;;;;;;;;;;;;;19.44;55.60;102629.88;5033736;28;1906;-33
2022/03/17 11:12:49;;;;;;;;;;;;;;;19.35;56.50;102628.59;5026117;28;1626;-33
2022/03/17 11:15:34;;;;;;;;;;;;;;;19.32;56.40;102628.78;5036334;28;1069;-34
2022/03/17 11:18:05;;;;;;;;;;;;;;;19.37;56.43;102626.69;5023402;28;1591;-34
2022/03/17 11:20:32;;;;;;;;;;;;;;;19.39;55.77;102627.44;5020306;28;1583;-34
2022/03/17 11:23:10;;;;;;;;;;;;;;;19.29;56.26;102607.50;5023536;28;1408;-34
2022/03/17 11:25:40;;;;;;;;;;;;;;;19.19;56.70;102611.72;5030106;28;1509;-33
2022/03/17 11:28:09;;;;;;;;;;;;;;;19.28;56.94;102616.53;5029344;28;1696;-34
2022/03/17 11:30:42;;;;;;;;;;;;;;;19.24;56.50;102620.34;5034313;28;1910;-33
2022/03/17 11:33:24;;;;;;;;;;;;;;;19.20;57.01;102618.78;5033487;28;1819;-35
2022/03/17 11:36:01;;;;;;;;;;;;;;;19.30;56.14;102617.31;5026743;28;2452;-34
2022/03/17 11:38:37;;;;;;;;;;;;;;;19.33;57.07;102603.69;5019548;28;1533;-34
2022/03/17 11:41:10;;;;;;;;;;;;;;;20.35;54.46;102606.31;5023081;28;1648;-34
2022/03/17 11:43:41;;;;;;;;;;;;;;;20.61;53.53;102603.72;5032300;28;1556;-34
2022/03/17 11:46:13;;;;;;;;;;;;;;;20.57;53.92;102581.56;5033364;28;1560;-34
2022/03/17 11:48:40;;;;;;;;;;;;;;;20.58;53.57;102599.41;5033210;28;1680;-34
2022/03/17 11:51:09;;;;;;;;;;;;;;;20.58;54.38;102604.78;5032364;28;1963;-33
2022/03/17 11:53:40;;;;;;;;;;;;;;;20.61;54.64;102604.63;5031485;28;1810;-34
2022/03/17 11:56:09;;;;;;;;;;;;;;;20.64;54.54;102598.16;5031232;28;1772;-34
2022/03/17 11:58:42;;;;;;;;;;;;;;;20.63;54.36;102591.94;5032773;28;1755;-34
2022/03/17 12:01:13;;;;;;;;;;;;;;;20.66;53.42;102607.84;5028949;28;1572;-35
2022/03/17 12:03:54;;;;;;;;;;;;;;;20.80;54.31;102596.19;5014882;28;1563;-32
2022/03/17 12:06:30;;;;;;;;;;;;;;;20.72;54.06;102598.53;5031724;28;1460;-33
2022/03/17 12:09:01;;;;;;;;;;;;;;;20.79;54.52;102596.28;5027788;28;1981;-34
2022/03/17 12:11:42;;;;;;;;;;;;;;;20.71;53.43;102577.09;5032330;28;1338;-33
2022/03/17 12:14:17;;;;;;;;;;;;;;;20.70;55.05;102596.91;5033643;28;1541;-34
2022/03/17 12:16:55;;;;;;;;;;;;;;;20.68;54.05;102596.16;5031218;28;1568;-33
2022/03/17 12:19:33;;;;;;;;;;;;;;;20.65;54.50;102600.75;5027061;28;2035;-34
2022/03/17 12:22:37;;;;;;;;;;;;;;;20.62;55.14;102606.34;5021914;28;2301;-33
2022/03/17 12:25:15;;;;;;;;;;;;;;;20.62;54.23;102605.47;5024802;28;1509;-35
2022/03/17 12:27:46;;;;;;;;;;;;;;;20.55;55.39;102596.03;5033161;28;1632;-33
2022/03/17 12:30:14;;;;;;;;;;;;;;;20.53;55.43;102589.91;5034309;28;1977;-34
2022/03/17 12:32:53;;;;;;;;;;;;;;;20.55;55.52;102610.38;5030625;28;1592;-33
2022/03/17 12:35:20;;;;;;;;;;;;;;;20.36;56.58;102605.31;5032358;28;1452;-34
2022/03/17 12:38:13;;;;;;;;;;;;;;;20.18;57.68;102604.69;5033148;28;1626;-33
2022/03/17 12:40:43;;;;;;;;;;;;;;;20.22;57.67;102592.78;5024669;28;1687;-33
2022/03/17 12:43:12;;;;;;;;;;;;;;;20.49;56.32;102593.75;5018828;28;1448;-34
2022/03/17 12:45:40;;;;;;;;;;;;;;;20.12;57.19;102598.84;5026412;28;1088;-33
2022/03/17 12:48:10;;;;;;;;;;;;;;;20.01;57.05;102602.22;5030933;28;1600;-33
2022/03/17 12:50:41;;;;;;;;;;;;;;;20.03;57.55;102614.59;5031643;28;1906;-33
2022/03/17 12:53:11;;;;;;;;;;;;;;;20.19;58.37;102614.50;5023129;28;1588;-32
2022/03/17 12:55:41;;;;;;;;;;;;;;;20.04;58.09;102604.72;5025715;28;1421;-32
2022/03/17 12:58:10;;;;;;;;;;;;;;;20.08;57.99;102617.00;5032357;28;1779;-33
2022/03/17 13:00:43;;;;;;;;;;;;;;;20.01;57.29;102635.28;5034076;28;1302;-34
2022/03/17 13:03:16;;;;;;;;;;;;;;;20.02;57.97;102615.56;5031333;28;1813;-33
2022/03/17 13:08:38;;;;;;;;;;;;;;;19.94;57.13;102620.53;5032444;28;1504;-32
2022/03/17 13:14:25;;;;;;;;;;;;;;;19.84;58.41;102624.78;5031554;28;1322;-33
2022/03/17 13:16:58;;;;;;;;;;;;;;;19.81;58.15;102625.81;5031455;28;1746;-32
2022/03/17 13:19:27;;;;;;;;;;;;;;;19.78;57.73;102628.69;5032099;28;1782;-33
2022/03/17 13:22:03;;;;;;;;;;;;;;;19.75;58.76;102626.19;5026302;28;1437;-33
2022/03/17 13:24:36;;;;;;;;;;;;;;;19.74;57.81;102624.47;5029647;28;1750;-33
2022/03/17 13:27:02;;;;;;;;;;;;;;;19.70;57.92;102628.28;5017090;28;1688;-32
2022/03/17 13:29:31;;;;;;;;;;;;;;;19.69;58.02;102631.91;5033011;28;1979;-32
2022/03/17 13:31:59;;;;;;;;;;;;;;;19.67;59.09;102633.81;5030868;28;1607;-33
2022/03/17 13:34:36;;;;;;;;;;;;;;;19.62;59.02;102635.94;5025342;28;1475;-32
2022/03/17 13:37:10;;;;;;;;;;;;;;;19.60;58.94;102627.97;5013732;28;1128;-33
2022/03/17 13:39:39;;;;;;;;;;;;;;;19.64;58.62;102628.66;5013665;28;1139;-33
2022/03/17 13:42:06;;;;;;;;;;;;;;;19.78;57.89;102626.00;5031616;28;1581;-32
2022/03/17 13:44:43;;;;;;;;;;;;;;;19.89;58.26;102632.53;5032317;28;1767;-37
2022/03/17 13:47:13;;;;;;;;;;;;;;;20.09;58.38;102626.75;5026847;28;1780;-33